sensor_id;sensor_type;location;lat;lon;timestamp;pressure;altitude;pressure_sealevel;temperature;humidity
72118;BME280;59992;47.490;8.736;2023-06-10T00:01:53;96104.36;;;15.65;72.89
72118;BME280;59992;47.490;8.736;2023-06-10T00:04:49;96091.48;;;15.52;74.99
72118;BME280;59992;47.490;8.736;2023-06-10T00:07:39;96097.59;;;15.54;73.36
72118;BME280;59992;47.490;8.736;2023-06-10T00:10:30;96095.74;;;15.49;73.17
72118;BME280;59992;47.490;8.736;2023-06-10T00:13:20;96099.02;;;15.42;75.08
72118;BME280;59992;47.490;8.736;2023-06-10T00:16:10;96100.97;;;15.38;72.91
72118;BME280;59992;47.490;8.736;2023-06-10T00:19:00;96097.45;;;15.34;72.49
72118;BME280;59992;47.490;8.736;2023-06-10T00:21:51;96098.79;;;15.29;72.35
72118;BME280;59992;47.490;8.736;2023-06-10T00:24:42;96100.97;;;15.27;72.66
72118;BME280;59992;47.490;8.736;2023-06-10T00:27:32;96106.81;;;15.23;73.22
72118;BME280;59992;47.490;8.736;2023-06-10T00:30:24;96100.53;;;15.19;73.87
72118;BME280;59992;47.490;8.736;2023-06-10T00:33:15;96100.29;;;15.14;72.79
72118;BME280;59992;47.490;8.736;2023-06-10T00:36:05;96097.21;;;15.09;75.41
72118;BME280;59992;47.490;8.736;2023-06-10T00:38:56;96094.58;;;15.07;76.18
72118;BME280;59992;47.490;8.736;2023-06-10T00:41:46;96090.10;;;15.05;74.06
72118;BME280;59992;47.490;8.736;2023-06-10T00:44:36;96088.02;;;15.01;74.06
72118;BME280;59992;47.490;8.736;2023-06-10T00:47:26;96088.89;;;14.97;73.10
72118;BME280;59992;47.490;8.736;2023-06-10T00:50:17;96090.42;;;14.91;74.49
72118;BME280;59992;47.490;8.736;2023-06-10T00:53:07;96093.44;;;14.87;75.24
72118;BME280;59992;47.490;8.736;2023-06-10T00:55:58;96091.08;;;14.81;75.62
72118;BME280;59992;47.490;8.736;2023-06-10T00:58:48;96098.20;;;14.77;74.97
72118;BME280;59992;47.490;8.736;2023-06-10T01:01:39;96100.45;;;14.74;74.81
72118;BME280;59992;47.490;8.736;2023-06-10T01:04:29;96105.06;;;14.69;77.03
72118;BME280;59992;47.490;8.736;2023-06-10T01:07:25;96101.38;;;14.65;76.77
72118;BME280;59992;47.490;8.736;2023-06-10T01:10:23;96100.43;;;14.60;76.65
72118;BME280;59992;47.490;8.736;2023-06-10T01:13:15;96096.62;;;14.54;75.98
72118;BME280;59992;47.490;8.736;2023-06-10T01:16:07;96090.26;;;14.50;76.67
72118;BME280;59992;47.490;8.736;2023-06-10T01:18:57;96089.61;;;14.44;78.65
72118;BME280;59992;47.490;8.736;2023-06-10T01:21:49;96086.29;;;14.42;77.09
72118;BME280;59992;47.490;8.736;2023-06-10T01:24:40;96085.95;;;14.39;76.29
72118;BME280;59992;47.490;8.736;2023-06-10T01:27:35;96085.84;;;14.34;78.45
72118;BME280;59992;47.490;8.736;2023-06-10T01:30:32;96092.11;;;14.31;77.80
72118;BME280;59992;47.490;8.736;2023-06-10T01:33:29;96095.18;;;14.28;76.24
72118;BME280;59992;47.490;8.736;2023-06-10T01:36:22;96098.02;;;14.24;77.17
72118;BME280;59992;47.490;8.736;2023-06-10T01:39:14;96103.70;;;14.17;78.80
72118;BME280;59992;47.490;8.736;2023-06-10T01:42:06;96106.50;;;14.10;79.84
72118;BME280;59992;47.490;8.736;2023-06-10T01:44:57;96104.63;;;14.07;80.25
72118;BME280;59992;47.490;8.736;2023-06-10T01:47:47;96106.79;;;14.04;76.93
72118;BME280;59992;47.490;8.736;2023-06-10T01:50:37;96111.01;;;14.00;79.57
72118;BME280;59992;47.490;8.736;2023-06-10T01:53:28;96108.81;;;13.97;81.05
72118;BME280;59992;47.490;8.736;2023-06-10T01:56:18;96108.67;;;13.96;81.09
72118;BME280;59992;47.490;8.736;2023-06-10T01:59:09;96105.87;;;13.94;78.74
72118;BME280;59992;47.490;8.736;2023-06-10T02:01:59;96111.23;;;13.90;77.74
72118;BME280;59992;47.490;8.736;2023-06-10T02:04:49;96111.63;;;13.87;77.84
72118;BME280;59992;47.490;8.736;2023-06-10T02:07:39;96115.31;;;13.83;80.53
72118;BME280;59992;47.490;8.736;2023-06-10T02:10:30;96114.05;;;13.78;78.13
72118;BME280;59992;47.490;8.736;2023-06-10T02:13:20;96116.52;;;13.74;80.89
72118;BME280;59992;47.490;8.736;2023-06-10T02:16:11;96121.48;;;13.71;79.44
72118;BME280;59992;47.490;8.736;2023-06-10T02:19:02;96120.45;;;13.67;82.44
72118;BME280;59992;47.490;8.736;2023-06-10T02:21:55;96121.22;;;13.65;79.99
72118;BME280;59992;47.490;8.736;2023-06-10T02:24:45;96121.69;;;13.62;79.21
72118;BME280;59992;47.490;8.736;2023-06-10T02:27:35;96121.80;;;13.57;81.76
72118;BME280;59992;47.490;8.736;2023-06-10T02:30:25;96123.02;;;13.54;82.36
72118;BME280;59992;47.490;8.736;2023-06-10T02:33:16;96128.68;;;13.51;80.56
72118;BME280;59992;47.490;8.736;2023-06-10T02:36:06;96133.88;;;13.45;83.05
72118;BME280;59992;47.490;8.736;2023-06-10T02:38:56;96134.13;;;13.43;82.43
72118;BME280;59992;47.490;8.736;2023-06-10T02:41:47;96135.35;;;13.39;83.50
72118;BME280;59992;47.490;8.736;2023-06-10T02:44:38;96132.86;;;13.37;83.93
72118;BME280;59992;47.490;8.736;2023-06-10T02:47:28;96136.13;;;13.36;83.87
72118;BME280;59992;47.490;8.736;2023-06-10T02:50:18;96143.21;;;13.35;83.24
72118;BME280;59992;47.490;8.736;2023-06-10T02:53:08;96142.16;;;13.32;81.99
72118;BME280;59992;47.490;8.736;2023-06-10T02:55:59;96140.52;;;13.27;83.72
72118;BME280;59992;47.490;8.736;2023-06-10T02:58:49;96147.51;;;13.27;81.59
72118;BME280;59992;47.490;8.736;2023-06-10T03:01:40;96147.12;;;13.26;81.04
72118;BME280;59992;47.490;8.736;2023-06-10T03:04:30;96146.54;;;13.23;82.45
72118;BME280;59992;47.490;8.736;2023-06-10T03:07:20;96143.73;;;13.20;83.03
72118;BME280;59992;47.490;8.736;2023-06-10T03:10:10;96144.51;;;13.17;83.19
72118;BME280;59992;47.490;8.736;2023-06-10T03:13:00;96144.98;;;13.15;83.24
72118;BME280;59992;47.490;8.736;2023-06-10T03:15:50;96152.81;;;13.13;83.00
72118;BME280;59992;47.490;8.736;2023-06-10T03:18:41;96153.81;;;13.12;83.06
72118;BME280;59992;47.490;8.736;2023-06-10T03:21:31;96156.33;;;13.08;84.49
72118;BME280;59992;47.490;8.736;2023-06-10T03:24:21;96158.38;;;13.08;83.77
72118;BME280;59992;47.490;8.736;2023-06-10T03:27:12;96162.41;;;13.07;83.17
72118;BME280;59992;47.490;8.736;2023-06-10T03:30:04;96158.00;;;13.04;83.23
72118;BME280;59992;47.490;8.736;2023-06-10T03:32:54;96162.25;;;13.01;83.91
72118;BME280;59992;47.490;8.736;2023-06-10T03:35:45;96163.85;;;12.99;82.48
72118;BME280;59992;47.490;8.736;2023-06-10T03:38:35;96165.05;;;13.01;83.79
72118;BME280;59992;47.490;8.736;2023-06-10T03:41:25;96169.48;;;13.02;85.28
72118;BME280;59992;47.490;8.736;2023-06-10T03:44:15;96163.79;;;13.03;84.82
72118;BME280;59992;47.490;8.736;2023-06-10T03:47:06;96173.42;;;13.12;84.08
72118;BME280;59992;47.490;8.736;2023-06-10T03:49:56;96177.90;;;13.17;82.02
72118;BME280;59992;47.490;8.736;2023-06-10T03:52:46;96179.39;;;13.22;82.39
72118;BME280;59992;47.490;8.736;2023-06-10T03:55:35;96181.51;;;13.25;82.43
72118;BME280;59992;47.490;8.736;2023-06-10T03:58:26;96181.89;;;13.27;82.20
72118;BME280;59992;47.490;8.736;2023-06-10T04:01:16;96183.85;;;13.31;83.22
72118;BME280;59992;47.490;8.736;2023-06-10T04:04:12;96184.66;;;13.36;83.35
72118;BME280;59992;47.490;8.736;2023-06-10T04:07:02;96186.98;;;13.60;82.11
72118;BME280;59992;47.490;8.736;2023-06-10T04:09:52;96187.23;;;14.10;80.55
72118;BME280;59992;47.490;8.736;2023-06-10T04:12:43;96189.31;;;14.68;78.02
72118;BME280;59992;47.490;8.736;2023-06-10T04:15:33;96194.65;;;15.27;76.17
72118;BME280;59992;47.490;8.736;2023-06-10T04:18:24;96192.78;;;15.88;75.33
72118;BME280;59992;47.490;8.736;2023-06-10T04:21:14;96196.98;;;16.54;73.62
72118;BME280;59992;47.490;8.736;2023-06-10T04:24:05;96196.25;;;17.15;70.07
72118;BME280;59992;47.490;8.736;2023-06-10T04:26:55;96201.23;;;17.77;69.67
72118;BME280;59992;47.490;8.736;2023-06-10T04:29:46;96203.55;;;18.46;70.47
72118;BME280;59992;47.490;8.736;2023-06-10T04:32:36;96205.55;;;19.16;67.25
72118;BME280;59992;47.490;8.736;2023-06-10T04:35:26;96205.67;;;19.77;62.89
72118;BME280;59992;47.490;8.736;2023-06-10T04:38:16;96202.04;;;20.32;63.34
72118;BME280;59992;47.490;8.736;2023-06-10T04:41:06;96206.50;;;20.92;60.43
72118;BME280;59992;47.490;8.736;2023-06-10T04:43:56;96206.81;;;21.48;60.67
72118;BME280;59992;47.490;8.736;2023-06-10T04:46:47;96211.39;;;22.04;57.53
72118;BME280;59992;47.490;8.736;2023-06-10T04:49:38;96211.74;;;22.55;53.54
72118;BME280;59992;47.490;8.736;2023-06-10T04:52:28;96213.25;;;23.02;54.45
72118;BME280;59992;47.490;8.736;2023-06-10T04:55:18;96220.30;;;23.60;55.46
72118;BME280;59992;47.490;8.736;2023-06-10T04:58:09;96220.30;;;24.16;53.49
72118;BME280;59992;47.490;8.736;2023-06-10T05:00:59;96223.77;;;24.68;51.60
72118;BME280;59992;47.490;8.736;2023-06-10T05:03:50;96223.27;;;25.18;50.34
72118;BME280;59992;47.490;8.736;2023-06-10T05:06:41;96221.05;;;25.60;48.77
72118;BME280;59992;47.490;8.736;2023-06-10T05:09:31;96227.98;;;26.06;45.65
72118;BME280;59992;47.490;8.736;2023-06-10T05:12:22;96231.12;;;26.52;48.03
72118;BME280;59992;47.490;8.736;2023-06-10T05:15:12;96233.33;;;27.04;46.88
72118;BME280;59992;47.490;8.736;2023-06-10T05:18:03;96235.30;;;27.56;44.36
72118;BME280;59992;47.490;8.736;2023-06-10T05:20:53;96237.35;;;28.02;42.45
72118;BME280;59992;47.490;8.736;2023-06-10T05:23:43;96240.86;;;28.44;43.69
72118;BME280;59992;47.490;8.736;2023-06-10T05:26:33;96242.31;;;28.91;39.78
72118;BME280;59992;47.490;8.736;2023-06-10T05:29:26;96230.95;;;29.17;39.13
72118;BME280;59992;47.490;8.736;2023-06-10T05:32:16;96247.86;;;29.56;35.86
72118;BME280;59992;47.490;8.736;2023-06-10T05:35:07;96247.21;;;29.83;37.28
72118;BME280;59992;47.490;8.736;2023-06-10T05:37:57;96245.01;;;30.25;36.00
72118;BME280;59992;47.490;8.736;2023-06-10T05:40:49;96247.55;;;30.63;34.60
72118;BME280;59992;47.490;8.736;2023-06-10T05:43:39;96247.55;;;30.93;34.18
72118;BME280;59992;47.490;8.736;2023-06-10T05:46:30;96247.30;;;31.23;34.21
72118;BME280;59992;47.490;8.736;2023-06-10T05:49:20;96247.40;;;31.61;35.63
72118;BME280;59992;47.490;8.736;2023-06-10T05:52:10;96244.54;;;31.80;30.80
72118;BME280;59992;47.490;8.736;2023-06-10T05:55:01;96244.95;;;31.79;31.83
72118;BME280;59992;47.490;8.736;2023-06-10T05:57:59;96243.45;;;31.90;31.94
72118;BME280;59992;47.490;8.736;2023-06-10T06:00:51;96244.77;;;31.96;29.83
72118;BME280;59992;47.490;8.736;2023-06-10T06:03:41;96243.34;;;31.83;29.19
72118;BME280;59992;47.490;8.736;2023-06-10T06:06:34;96243.92;;;31.77;31.35
72118;BME280;59992;47.490;8.736;2023-06-10T06:09:26;96243.29;;;31.81;29.90
72118;BME280;59992;47.490;8.736;2023-06-10T06:12:18;96244.98;;;32.02;30.32
72118;BME280;59992;47.490;8.736;2023-06-10T06:15:11;96249.39;;;32.24;29.94
72118;BME280;59992;47.490;8.736;2023-06-10T06:18:02;96247.48;;;32.30;29.47
72118;BME280;59992;47.490;8.736;2023-06-10T06:20:55;96247.13;;;32.14;28.47
72118;BME280;59992;47.490;8.736;2023-06-10T06:23:46;96249.58;;;32.13;29.38
72118;BME280;59992;47.490;8.736;2023-06-10T06:26:38;96246.42;;;32.16;29.72
72118;BME280;59992;47.490;8.736;2023-06-10T06:29:31;96244.32;;;32.10;29.23
72118;BME280;59992;47.490;8.736;2023-06-10T06:32:24;96245.45;;;31.70;29.04
72118;BME280;59992;47.490;8.736;2023-06-10T06:35:18;96243.90;;;31.62;29.94
72118;BME280;59992;47.490;8.736;2023-06-10T06:38:10;96244.35;;;31.40;29.82
72118;BME280;59992;47.490;8.736;2023-06-10T06:41:03;96243.11;;;31.52;29.71
72118;BME280;59992;47.490;8.736;2023-06-10T06:43:57;96246.66;;;31.39;30.60
72118;BME280;59992;47.490;8.736;2023-06-10T06:46:50;96247.38;;;31.47;29.67
72118;BME280;59992;47.490;8.736;2023-06-10T06:49:42;96246.97;;;31.56;29.49
72118;BME280;59992;47.490;8.736;2023-06-10T06:52:34;96235.35;;;31.58;29.71
72118;BME280;59992;47.490;8.736;2023-06-10T06:55:26;96241.13;;;31.67;30.18
72118;BME280;59992;47.490;8.736;2023-06-10T06:58:17;96239.90;;;31.88;29.48
72118;BME280;59992;47.490;8.736;2023-06-10T07:01:07;96239.40;;;32.07;29.83
72118;BME280;59992;47.490;8.736;2023-06-10T07:03:58;96243.43;;;32.01;28.80
72118;BME280;59992;47.490;8.736;2023-06-10T07:06:48;96243.08;;;31.84;29.30
72118;BME280;59992;47.490;8.736;2023-06-10T07:09:38;96242.15;;;31.43;30.06
72118;BME280;59992;47.490;8.736;2023-06-10T07:12:28;96238.14;;;31.67;30.52
72118;BME280;59992;47.490;8.736;2023-06-10T07:15:18;96240.10;;;32.00;29.11
72118;BME280;59992;47.490;8.736;2023-06-10T07:18:09;96238.31;;;31.98;29.12
72118;BME280;59992;47.490;8.736;2023-06-10T07:20:59;96240.14;;;31.93;29.15
72118;BME280;59992;47.490;8.736;2023-06-10T07:23:49;96242.30;;;31.80;29.04
72118;BME280;59992;47.490;8.736;2023-06-10T07:26:43;96242.48;;;31.75;29.35
72118;BME280;59992;47.490;8.736;2023-06-10T07:29:33;96243.86;;;31.77;29.27
72118;BME280;59992;47.490;8.736;2023-06-10T07:32:24;96246.56;;;31.83;29.34
72118;BME280;59992;47.490;8.736;2023-06-10T07:35:15;96247.85;;;31.88;29.65
72118;BME280;59992;47.490;8.736;2023-06-10T07:38:05;96248.89;;;31.89;28.88
72118;BME280;59992;47.490;8.736;2023-06-10T07:40:55;96243.23;;;31.65;29.41
72118;BME280;59992;47.490;8.736;2023-06-10T07:43:45;96242.88;;;31.48;30.05
72118;BME280;59992;47.490;8.736;2023-06-10T07:46:35;96245.03;;;31.15;30.98
72118;BME280;59992;47.490;8.736;2023-06-10T07:49:26;96245.60;;;31.24;30.77
72118;BME280;59992;47.490;8.736;2023-06-10T07:52:16;96247.34;;;31.53;30.30
72118;BME280;59992;47.490;8.736;2023-06-10T07:55:08;96246.29;;;31.74;29.67
72118;BME280;59992;47.490;8.736;2023-06-10T07:57:59;96249.93;;;31.72;30.53
72118;BME280;59992;47.490;8.736;2023-06-10T08:00:50;96249.55;;;31.60;29.97
72118;BME280;59992;47.490;8.736;2023-06-10T08:03:42;96249.27;;;31.20;30.74
72118;BME280;59992;47.490;8.736;2023-06-10T08:06:34;96243.29;;;31.33;30.62
72118;BME280;59992;47.490;8.736;2023-06-10T08:09:27;96245.32;;;31.06;30.87
72118;BME280;59992;47.490;8.736;2023-06-10T08:12:19;96242.61;;;30.96;31.73
72118;BME280;59992;47.490;8.736;2023-06-10T08:15:12;96244.92;;;30.84;32.30
72118;BME280;59992;47.490;8.736;2023-06-10T08:18:05;96245.58;;;30.74;31.62
72118;BME280;59992;47.490;8.736;2023-06-10T08:20:58;96244.46;;;30.59;31.89
72118;BME280;59992;47.490;8.736;2023-06-10T08:23:54;96242.52;;;30.58;31.80
72118;BME280;59992;47.490;8.736;2023-06-10T08:26:45;96238.59;;;30.39;31.57
72118;BME280;59992;47.490;8.736;2023-06-10T08:29:36;96239.94;;;30.05;32.08
72118;BME280;59992;47.490;8.736;2023-06-10T08:32:26;96240.95;;;29.96;32.60
72118;BME280;59992;47.490;8.736;2023-06-10T08:35:16;96240.27;;;29.94;32.86
72118;BME280;59992;47.490;8.736;2023-06-10T08:38:06;96237.98;;;30.05;32.59
72118;BME280;59992;47.490;8.736;2023-06-10T08:40:59;96241.98;;;30.26;32.92
72118;BME280;59992;47.490;8.736;2023-06-10T08:43:54;96240.67;;;30.07;33.71
72118;BME280;59992;47.490;8.736;2023-06-10T08:46:47;96242.37;;;30.03;33.76
72118;BME280;59992;47.490;8.736;2023-06-10T08:49:41;96237.55;;;29.98;33.64
72118;BME280;59992;47.490;8.736;2023-06-10T08:52:36;96236.10;;;30.08;34.00
72118;BME280;59992;47.490;8.736;2023-06-10T08:55:29;96240.58;;;30.02;32.61
72118;BME280;59992;47.490;8.736;2023-06-10T08:58:21;96235.10;;;30.03;34.32
72118;BME280;59992;47.490;8.736;2023-06-10T09:01:11;96236.90;;;30.14;34.12
72118;BME280;59992;47.490;8.736;2023-06-10T09:04:03;96237.05;;;30.47;32.91
72118;BME280;59992;47.490;8.736;2023-06-10T09:06:54;96234.27;;;30.43;32.97
72118;BME280;59992;47.490;8.736;2023-06-10T09:09:45;96229.99;;;30.27;33.43
72118;BME280;59992;47.490;8.736;2023-06-10T09:12:36;96230.09;;;30.12;32.75
72118;BME280;59992;47.490;8.736;2023-06-10T09:15:27;96232.34;;;30.22;32.66
72118;BME280;59992;47.490;8.736;2023-06-10T09:18:17;96232.52;;;30.18;33.20
72118;BME280;59992;47.490;8.736;2023-06-10T09:21:08;96234.27;;;30.33;32.95
72118;BME280;59992;47.490;8.736;2023-06-10T09:23:59;96236.60;;;30.54;31.61
72118;BME280;59992;47.490;8.736;2023-06-10T09:26:49;96231.39;;;30.37;32.15
72118;BME280;59992;47.490;8.736;2023-06-10T09:29:52;96231.44;;;30.30;33.28
72118;BME280;59992;47.490;8.736;2023-06-10T09:32:44;96231.25;;;30.40;33.10
72118;BME280;59992;47.490;8.736;2023-06-10T09:35:34;96230.44;;;30.24;32.71
72118;BME280;59992;47.490;8.736;2023-06-10T09:38:28;96229.09;;;30.11;33.76
72118;BME280;59992;47.490;8.736;2023-06-10T09:41:19;96228.36;;;30.17;33.99
72118;BME280;59992;47.490;8.736;2023-06-10T09:44:14;96226.33;;;30.27;32.70
72118;BME280;59992;47.490;8.736;2023-06-10T09:47:05;96225.17;;;30.39;31.91
72118;BME280;59992;47.490;8.736;2023-06-10T09:49:55;96224.08;;;30.39;31.99
72118;BME280;59992;47.490;8.736;2023-06-10T09:52:47;96226.91;;;30.31;30.83
72118;BME280;59992;47.490;8.736;2023-06-10T09:55:38;96231.11;;;30.02;30.64
72118;BME280;59992;47.490;8.736;2023-06-10T09:58:37;96231.48;;;29.59;30.65
72118;BME280;59992;47.490;8.736;2023-06-10T10:01:27;96227.58;;;29.02;31.54
72118;BME280;59992;47.490;8.736;2023-06-10T10:04:24;96222.73;;;28.41;33.67
72118;BME280;59992;47.490;8.736;2023-06-10T10:07:15;96221.14;;;28.12;34.90
72118;BME280;59992;47.490;8.736;2023-06-10T10:10:06;96220.71;;;27.94;35.87
72118;BME280;59992;47.490;8.736;2023-06-10T10:12:57;96221.08;;;27.91;34.36
72118;BME280;59992;47.490;8.736;2023-06-10T10:15:49;96222.80;;;27.64;34.86
72118;BME280;59992;47.490;8.736;2023-06-10T10:18:41;96224.69;;;27.46;34.74
72118;BME280;59992;47.490;8.736;2023-06-10T10:21:35;96217.19;;;27.27;35.01
72118;BME280;59992;47.490;8.736;2023-06-10T10:24:33;96220.86;;;27.07;36.00
72118;BME280;59992;47.490;8.736;2023-06-10T10:27:28;96220.77;;;26.80;36.71
72118;BME280;59992;47.490;8.736;2023-06-10T10:30:21;96214.15;;;26.78;36.61
72118;BME280;59992;47.490;8.736;2023-06-10T10:33:16;96212.67;;;26.79;36.61
72118;BME280;59992;47.490;8.736;2023-06-10T10:36:07;96210.42;;;26.76;36.97
72118;BME280;59992;47.490;8.736;2023-06-10T10:38:58;96209.53;;;26.76;37.39
72118;BME280;59992;47.490;8.736;2023-06-10T10:41:51;96208.44;;;26.79;37.87
72118;BME280;59992;47.490;8.736;2023-06-10T10:44:42;96206.80;;;26.75;38.02
72118;BME280;59992;47.490;8.736;2023-06-10T10:47:34;96213.13;;;26.72;37.70
72118;BME280;59992;47.490;8.736;2023-06-10T10:50:29;96208.35;;;26.60;37.66
72118;BME280;59992;47.490;8.736;2023-06-10T10:53:22;96204.77;;;26.45;39.01
72118;BME280;59992;47.490;8.736;2023-06-10T10:56:15;96201.71;;;26.29;38.49
72118;BME280;59992;47.490;8.736;2023-06-10T10:59:07;96201.71;;;26.22;38.68
72118;BME280;59992;47.490;8.736;2023-06-10T11:01:58;96193.01;;;26.12;40.67
72118;BME280;59992;47.490;8.736;2023-06-10T11:04:49;96192.70;;;26.11;39.23
72118;BME280;59992;47.490;8.736;2023-06-10T11:07:39;96191.70;;;26.11;39.77
72118;BME280;59992;47.490;8.736;2023-06-10T11:10:33;96191.14;;;26.08;39.17
72118;BME280;59992;47.490;8.736;2023-06-10T11:13:25;96184.92;;;25.99;38.75
72118;BME280;59992;47.490;8.736;2023-06-10T11:16:20;96183.31;;;25.91;39.01
72118;BME280;59992;47.490;8.736;2023-06-10T11:19:11;96182.27;;;25.87;39.03
72118;BME280;59992;47.490;8.736;2023-06-10T11:22:21;96187.95;;;25.85;38.38
72118;BME280;59992;47.490;8.736;2023-06-10T11:25:15;96192.23;;;25.77;38.52
72118;BME280;59992;47.490;8.736;2023-06-10T11:28:19;96189.29;;;25.76;38.29
72118;BME280;59992;47.490;8.736;2023-06-10T11:31:19;96183.59;;;25.72;38.36
72118;BME280;59992;47.490;8.736;2023-06-10T11:34:10;96188.20;;;25.65;38.43
72118;BME280;59992;47.490;8.736;2023-06-10T11:37:01;96188.28;;;25.64;37.46
72118;BME280;59992;47.490;8.736;2023-06-10T11:39:54;96187.83;;;25.63;37.95
72118;BME280;59992;47.490;8.736;2023-06-10T11:42:46;96181.80;;;25.69;37.76
72118;BME280;59992;47.490;8.736;2023-06-10T11:45:36;96177.22;;;25.69;38.47
72118;BME280;59992;47.490;8.736;2023-06-10T11:48:27;96180.42;;;25.74;37.52
72118;BME280;59992;47.490;8.736;2023-06-10T11:51:19;96169.39;;;25.82;37.94
72118;BME280;59992;47.490;8.736;2023-06-10T11:54:11;96168.42;;;25.83;37.71
72118;BME280;59992;47.490;8.736;2023-06-10T11:57:01;96167.40;;;25.78;37.86
72118;BME280;59992;47.490;8.736;2023-06-10T11:59:52;96163.23;;;25.80;37.48
72118;BME280;59992;47.490;8.736;2023-06-10T12:02:43;96158.88;;;25.85;37.53
72118;BME280;59992;47.490;8.736;2023-06-10T12:05:33;96161.80;;;25.93;37.09
72118;BME280;59992;47.490;8.736;2023-06-10T12:08:23;96158.40;;;26.00;36.77
72118;BME280;59992;47.490;8.736;2023-06-10T12:11:13;96164.55;;;26.06;36.90
72118;BME280;59992;47.490;8.736;2023-06-10T12:14:04;96161.53;;;26.12;36.85
72118;BME280;59992;47.490;8.736;2023-06-10T12:16:55;96160.73;;;26.15;37.26
72118;BME280;59992;47.490;8.736;2023-06-10T12:19:46;96158.21;;;26.15;36.54
72118;BME280;59992;47.490;8.736;2023-06-10T12:22:40;96150.02;;;26.16;36.56
72118;BME280;59992;47.490;8.736;2023-06-10T12:25:31;96153.63;;;26.25;36.30
72118;BME280;59992;47.490;8.736;2023-06-10T12:28:23;96149.58;;;26.29;36.60
72118;BME280;59992;47.490;8.736;2023-06-10T12:31:14;96150.03;;;26.37;36.35
72118;BME280;59992;47.490;8.736;2023-06-10T12:34:10;96148.58;;;26.50;36.01
72118;BME280;59992;47.490;8.736;2023-06-10T12:37:02;96146.58;;;26.55;35.15
72118;BME280;59992;47.490;8.736;2023-06-10T12:39:53;96144.80;;;26.60;35.55
72118;BME280;59992;47.490;8.736;2023-06-10T12:42:45;96139.52;;;26.64;36.17
72118;BME280;59992;47.490;8.736;2023-06-10T12:45:36;96139.84;;;26.68;35.83
72118;BME280;59992;47.490;8.736;2023-06-10T12:48:28;96133.29;;;26.73;35.85
72118;BME280;59992;47.490;8.736;2023-06-10T12:51:19;96132.43;;;26.73;36.31
72118;BME280;59992;47.490;8.736;2023-06-10T12:54:25;96134.95;;;26.81;36.72
72118;BME280;59992;47.490;8.736;2023-06-10T12:57:16;96133.16;;;26.79;36.01
72118;BME280;59992;47.490;8.736;2023-06-10T13:00:10;96132.20;;;26.78;35.84
72118;BME280;59992;47.490;8.736;2023-06-10T13:03:04;96127.48;;;26.79;35.76
72118;BME280;59992;47.490;8.736;2023-06-10T13:05:57;96118.66;;;26.83;36.04
72118;BME280;59992;47.490;8.736;2023-06-10T13:08:49;96113.56;;;26.92;36.23
72118;BME280;59992;47.490;8.736;2023-06-10T13:11:41;96115.50;;;26.97;35.78
72118;BME280;59992;47.490;8.736;2023-06-10T13:14:34;96109.80;;;27.04;34.84
72118;BME280;59992;47.490;8.736;2023-06-10T13:17:27;96112.61;;;26.95;33.74
72118;BME280;59992;47.490;8.736;2023-06-10T13:20:18;96104.79;;;26.89;33.53
72118;BME280;59992;47.490;8.736;2023-06-10T13:23:10;96101.02;;;26.84;33.27
72118;BME280;59992;47.490;8.736;2023-06-10T13:26:02;96094.33;;;26.82;33.68
72118;BME280;59992;47.490;8.736;2023-06-10T13:28:53;96095.71;;;26.87;34.03
72118;BME280;59992;47.490;8.736;2023-06-10T13:31:44;96098.36;;;26.90;34.06
72118;BME280;59992;47.490;8.736;2023-06-10T13:34:35;96096.02;;;26.97;33.45
72118;BME280;59992;47.490;8.736;2023-06-10T13:37:25;96090.88;;;26.99;33.46
72118;BME280;59992;47.490;8.736;2023-06-10T13:40:15;96089.79;;;26.98;34.34
72118;BME280;59992;47.490;8.736;2023-06-10T13:43:08;96084.80;;;26.94;35.07
72118;BME280;59992;47.490;8.736;2023-06-10T13:45:58;96085.05;;;26.94;34.10
72118;BME280;59992;47.490;8.736;2023-06-10T13:48:49;96086.10;;;26.96;34.11
72118;BME280;59992;47.490;8.736;2023-06-10T13:51:39;96079.19;;;26.97;33.80
72118;BME280;59992;47.490;8.736;2023-06-10T13:54:29;96073.27;;;26.98;34.00
72118;BME280;59992;47.490;8.736;2023-06-10T13:57:20;96070.88;;;27.02;33.63
72118;BME280;59992;47.490;8.736;2023-06-10T14:00:11;96073.30;;;27.07;33.58
72118;BME280;59992;47.490;8.736;2023-06-10T14:03:02;96065.79;;;27.12;33.19
72118;BME280;59992;47.490;8.736;2023-06-10T14:05:52;96077.91;;;27.23;32.89
72118;BME280;59992;47.490;8.736;2023-06-10T14:08:45;96068.31;;;27.29;32.92
72118;BME280;59992;47.490;8.736;2023-06-10T14:11:35;96061.48;;;27.29;33.18
72118;BME280;59992;47.490;8.736;2023-06-10T14:14:25;96066.42;;;27.42;33.01
72118;BME280;59992;47.490;8.736;2023-06-10T14:17:15;96061.31;;;27.47;32.80
72118;BME280;59992;47.490;8.736;2023-06-10T14:20:09;96055.66;;;27.45;34.21
72118;BME280;59992;47.490;8.736;2023-06-10T14:22:59;96066.81;;;27.40;33.30
72118;BME280;59992;47.490;8.736;2023-06-10T14:25:49;96069.23;;;27.39;32.93
72118;BME280;59992;47.490;8.736;2023-06-10T14:28:39;96064.34;;;27.39;33.21
72118;BME280;59992;47.490;8.736;2023-06-10T14:31:29;96065.09;;;27.42;33.02
72118;BME280;59992;47.490;8.736;2023-06-10T14:34:19;96065.16;;;27.49;32.89
72118;BME280;59992;47.490;8.736;2023-06-10T14:37:09;96059.61;;;27.56;33.21
72118;BME280;59992;47.490;8.736;2023-06-10T14:39:59;96060.23;;;27.64;33.22
72118;BME280;59992;47.490;8.736;2023-06-10T14:42:49;96067.66;;;27.74;32.65
72118;BME280;59992;47.490;8.736;2023-06-10T14:45:39;96064.42;;;27.77;32.61
72118;BME280;59992;47.490;8.736;2023-06-10T14:48:30;96068.84;;;27.78;32.99
72118;BME280;59992;47.490;8.736;2023-06-10T14:51:19;96069.21;;;27.76;32.96
72118;BME280;59992;47.490;8.736;2023-06-10T14:54:10;96059.27;;;27.70;33.27
72118;BME280;59992;47.490;8.736;2023-06-10T14:57:01;96060.77;;;27.73;33.34
72118;BME280;59992;47.490;8.736;2023-06-10T14:59:51;96052.26;;;27.72;33.51
72118;BME280;59992;47.490;8.736;2023-06-10T15:02:42;96057.84;;;27.70;33.06
72118;BME280;59992;47.490;8.736;2023-06-10T15:05:32;96060.85;;;27.70;32.62
72118;BME280;59992;47.490;8.736;2023-06-10T15:08:23;96057.25;;;27.63;31.56